sensor_id;sensor_type;location;lat;lon;timestamp;temperature;humidity
19878;DHT22;10101;52.204;9.910;2023-06-10T00:00:12;15.10;99.90
19878;DHT22;10101;52.204;9.910;2023-06-10T00:02:40;15.10;99.90
19878;DHT22;10101;52.204;9.910;2023-06-10T00:05:08;15.00;99.90
19878;DHT22;10101;52.204;9.910;2023-06-10T00:07:36;14.90;99.90
19878;DHT22;10101;52.204;9.910;2023-06-10T00:10:04;14.80;99.90
19878;DHT22;10101;52.204;9.910;2023-06-10T00:12:31;14.70;1.00
19878;DHT22;10101;52.204;9.910;2023-06-10T00:15:02;14.70;1.00
19878;DHT22;10101;52.204;9.910;2023-06-10T00:17:29;14.60;1.00
19878;DHT22;10101;52.204;9.910;2023-06-10T00:19:56;14.60;1.00
19878;DHT22;10101;52.204;9.910;2023-06-10T00:22:24;14.60;1.00
19878;DHT22;10101;52.204;9.910;2023-06-10T00:24:56;14.70;10.20
19878;DHT22;10101;52.204;9.910;2023-06-10T00:27:23;14.70;47.50
19878;DHT22;10101;52.204;9.910;2023-06-10T00:29:52;14.80;95.80
19878;DHT22;10101;52.204;9.910;2023-06-10T00:32:18;14.80;81.90
19878;DHT22;10101;52.204;9.910;2023-06-10T00:34:45;14.80;29.60
19878;DHT22;10101;52.204;9.910;2023-06-10T00:37:12;14.80;1.60
19878;DHT22;10101;52.204;9.910;2023-06-10T00:39:39;14.80;1.00
19878;DHT22;10101;52.204;9.910;2023-06-10T00:42:08;14.80;1.00
19878;DHT22;10101;52.204;9.910;2023-06-10T00:44:36;14.80;1.00
19878;DHT22;10101;52.204;9.910;2023-06-10T00:47:03;14.80;1.00
19878;DHT22;10101;52.204;9.910;2023-06-10T00:49:30;14.80;1.00
19878;DHT22;10101;52.204;9.910;2023-06-10T00:51:57;14.80;1.00
19878;DHT22;10101;52.204;9.910;2023-06-10T00:54:24;14.70;1.00
19878;DHT22;10101;52.204;9.910;2023-06-10T00:56:52;14.80;1.00
19878;DHT22;10101;52.204;9.910;2023-06-10T00:59:20;14.70;1.00
19878;DHT22;10101;52.204;9.910;2023-06-10T01:01:47;14.60;1.00
19878;DHT22;10101;52.204;9.910;2023-06-10T01:04:14;14.30;1.00
19878;DHT22;10101;52.204;9.910;2023-06-10T01:06:52;14.40;1.00
19878;DHT22;10101;52.204;9.910;2023-06-10T01:09:28;14.30;42.20
19878;DHT22;10101;52.204;9.910;2023-06-10T01:12:01;14.30;99.90
19878;DHT22;10101;52.204;9.910;2023-06-10T01:14:35;14.30;99.90
19878;DHT22;10101;52.204;9.910;2023-06-10T01:17:02;14.30;1.00
19878;DHT22;10101;52.204;9.910;2023-06-10T01:19:30;14.30;1.00
19878;DHT22;10101;52.204;9.910;2023-06-10T01:21:58;14.40;99.90
19878;DHT22;10101;52.204;9.910;2023-06-10T01:24:26;14.30;99.90
19878;DHT22;10101;52.204;9.910;2023-06-10T01:26:54;14.20;1.00
19878;DHT22;10101;52.204;9.910;2023-06-10T01:29:28;14.20;99.80
19878;DHT22;10101;52.204;9.910;2023-06-10T01:32:00;14.10;99.90
19878;DHT22;10101;52.204;9.910;2023-06-10T01:34:29;14.20;1.00
19878;DHT22;10101;52.204;9.910;2023-06-10T01:36:59;14.20;48.90
19878;DHT22;10101;52.204;9.910;2023-06-10T01:39:26;14.10;86.60
19878;DHT22;10101;52.204;9.910;2023-06-10T01:41:54;14.10;99.90
19878;DHT22;10101;52.204;9.910;2023-06-10T01:44:22;14.10;1.00
19878;DHT22;10101;52.204;9.910;2023-06-10T01:46:50;14.00;1.00
19878;DHT22;10101;52.204;9.910;2023-06-10T01:49:17;14.00;1.00
19878;DHT22;10101;52.204;9.910;2023-06-10T01:51:44;14.00;1.00
19878;DHT22;10101;52.204;9.910;2023-06-10T01:54:12;14.00;99.90
19878;DHT22;10101;52.204;9.910;2023-06-10T01:56:39;13.90;99.90
19878;DHT22;10101;52.204;9.910;2023-06-10T01:59:05;13.90;1.00
19878;DHT22;10101;52.204;9.910;2023-06-10T02:01:34;13.90;1.00
19878;DHT22;10101;52.204;9.910;2023-06-10T02:04:00;13.90;99.90
19878;DHT22;10101;52.204;9.910;2023-06-10T02:06:27;13.90;36.80
19878;DHT22;10101;52.204;9.910;2023-06-10T02:08:54;13.80;1.00
19878;DHT22;10101;52.204;9.910;2023-06-10T02:11:22;13.80;99.90
19878;DHT22;10101;52.204;9.910;2023-06-10T02:13:49;13.80;1.00
19878;DHT22;10101;52.204;9.910;2023-06-10T02:16:15;13.80;99.90
19878;DHT22;10101;52.204;9.910;2023-06-10T02:18:42;13.60;99.90
19878;DHT22;10101;52.204;9.910;2023-06-10T02:21:09;13.60;1.00
19878;DHT22;10101;52.204;9.910;2023-06-10T02:23:36;13.60;1.00
19878;DHT22;10101;52.204;9.910;2023-06-10T02:26:03;13.60;99.90
19878;DHT22;10101;52.204;9.910;2023-06-10T02:28:31;13.60;1.00
19878;DHT22;10101;52.204;9.910;2023-06-10T02:30:58;13.50;96.40
19878;DHT22;10101;52.204;9.910;2023-06-10T02:33:25;13.60;1.00
19878;DHT22;10101;52.204;9.910;2023-06-10T02:35:52;13.50;99.90
19878;DHT22;10101;52.204;9.910;2023-06-10T02:38:19;13.50;99.90
19878;DHT22;10101;52.204;9.910;2023-06-10T02:40:46;13.40;99.90
19878;DHT22;10101;52.204;9.910;2023-06-10T02:43:13;13.30;1.00
19878;DHT22;10101;52.204;9.910;2023-06-10T02:45:41;13.40;1.00
19878;DHT22;10101;52.204;9.910;2023-06-10T02:48:07;13.30;1.00
19878;DHT22;10101;52.204;9.910;2023-06-10T02:50:34;13.20;1.00
19878;DHT22;10101;52.204;9.910;2023-06-10T02:53:01;13.10;1.00
19878;DHT22;10101;52.204;9.910;2023-06-10T02:55:27;13.10;99.90
19878;DHT22;10101;52.204;9.910;2023-06-10T02:57:54;13.00;99.90
19878;DHT22;10101;52.204;9.910;2023-06-10T03:00:21;13.10;99.90
19878;DHT22;10101;52.204;9.910;2023-06-10T03:02:49;13.00;99.90
19878;DHT22;10101;52.204;9.910;2023-06-10T03:05:16;13.00;99.90
19878;DHT22;10101;52.204;9.910;2023-06-10T03:07:44;13.00;99.90
19878;DHT22;10101;52.204;9.910;2023-06-10T03:10:12;12.90;99.90
19878;DHT22;10101;52.204;9.910;2023-06-10T03:12:39;12.90;99.90
19878;DHT22;10101;52.204;9.910;2023-06-10T03:15:07;12.80;99.90
19878;DHT22;10101;52.204;9.910;2023-06-10T03:17:33;12.70;99.90
19878;DHT22;10101;52.204;9.910;2023-06-10T03:20:02;12.80;99.90
19878;DHT22;10101;52.204;9.910;2023-06-10T03:22:31;12.70;99.90
19878;DHT22;10101;52.204;9.910;2023-06-10T03:24:57;12.70;99.90
19878;DHT22;10101;52.204;9.910;2023-06-10T03:27:25;12.70;99.90
19878;DHT22;10101;52.204;9.910;2023-06-10T03:29:52;12.80;99.90
19878;DHT22;10101;52.204;9.910;2023-06-10T03:32:18;12.80;99.90
19878;DHT22;10101;52.204;9.910;2023-06-10T03:34:45;12.70;99.90
19878;DHT22;10101;52.204;9.910;2023-06-10T03:37:14;12.60;99.90
19878;DHT22;10101;52.204;9.910;2023-06-10T03:39:41;12.70;99.90
19878;DHT22;10101;52.204;9.910;2023-06-10T03:42:08;12.80;99.90
19878;DHT22;10101;52.204;9.910;2023-06-10T03:44:35;12.70;99.90
19878;DHT22;10101;52.204;9.910;2023-06-10T03:47:01;12.70;99.90
19878;DHT22;10101;52.204;9.910;2023-06-10T03:49:28;12.80;99.90
19878;DHT22;10101;52.204;9.910;2023-06-10T03:51:55;12.80;99.90
19878;DHT22;10101;52.204;9.910;2023-06-10T03:54:23;12.70;99.90
19878;DHT22;10101;52.204;9.910;2023-06-10T03:56:50;12.80;99.90
19878;DHT22;10101;52.204;9.910;2023-06-10T03:59:17;12.80;99.90
19878;DHT22;10101;52.204;9.910;2023-06-10T04:01:44;12.70;99.90
19878;DHT22;10101;52.204;9.910;2023-06-10T04:04:13;12.80;99.90
19878;DHT22;10101;52.204;9.910;2023-06-10T04:06:40;12.80;99.90
19878;DHT22;10101;52.204;9.910;2023-06-10T04:09:09;12.90;99.90
19878;DHT22;10101;52.204;9.910;2023-06-10T04:11:37;12.90;99.90
19878;DHT22;10101;52.204;9.910;2023-06-10T04:14:04;13.00;99.90
19878;DHT22;10101;52.204;9.910;2023-06-10T04:16:30;13.10;99.90
19878;DHT22;10101;52.204;9.910;2023-06-10T04:18:58;13.10;99.90
19878;DHT22;10101;52.204;9.910;2023-06-10T04:21:25;13.10;99.90
19878;DHT22;10101;52.204;9.910;2023-06-10T04:23:51;13.00;99.90
19878;DHT22;10101;52.204;9.910;2023-06-10T04:26:18;13.00;99.90
19878;DHT22;10101;52.204;9.910;2023-06-10T04:28:46;13.10;99.90
19878;DHT22;10101;52.204;9.910;2023-06-10T04:31:13;13.30;99.90
19878;DHT22;10101;52.204;9.910;2023-06-10T04:33:40;13.40;99.90
19878;DHT22;10101;52.204;9.910;2023-06-10T04:36:07;13.50;99.90
19878;DHT22;10101;52.204;9.910;2023-06-10T04:38:34;13.70;99.90
19878;DHT22;10101;52.204;9.910;2023-06-10T04:41:00;13.70;99.90
19878;DHT22;10101;52.204;9.910;2023-06-10T04:43:27;13.80;99.90
19878;DHT22;10101;52.204;9.910;2023-06-10T04:45:56;13.80;99.90
19878;DHT22;10101;52.204;9.910;2023-06-10T04:48:22;14.00;99.90
19878;DHT22;10101;52.204;9.910;2023-06-10T04:50:50;14.10;99.90
19878;DHT22;10101;52.204;9.910;2023-06-10T04:53:17;14.20;99.90
19878;DHT22;10101;52.204;9.910;2023-06-10T04:55:44;14.40;99.90
19878;DHT22;10101;52.204;9.910;2023-06-10T04:58:11;14.70;99.90
19878;DHT22;10101;52.204;9.910;2023-06-10T05:00:37;14.70;99.90
19878;DHT22;10101;52.204;9.910;2023-06-10T05:03:05;14.60;99.90
19878;DHT22;10101;52.204;9.910;2023-06-10T05:05:32;14.80;99.90
19878;DHT22;10101;52.204;9.910;2023-06-10T05:07:59;14.90;99.90
19878;DHT22;10101;52.204;9.910;2023-06-10T05:10:26;15.10;99.90
19878;DHT22;10101;52.204;9.910;2023-06-10T05:12:53;15.20;99.90
19878;DHT22;10101;52.204;9.910;2023-06-10T05:15:19;14.90;99.90
19878;DHT22;10101;52.204;9.910;2023-06-10T05:17:46;14.90;99.90
19878;DHT22;10101;52.204;9.910;2023-06-10T05:20:14;15.40;99.90
19878;DHT22;10101;52.204;9.910;2023-06-10T05:22:41;15.40;99.90
19878;DHT22;10101;52.204;9.910;2023-06-10T05:25:08;15.30;99.90
19878;DHT22;10101;52.204;9.910;2023-06-10T05:27:35;15.20;99.90
19878;DHT22;10101;52.204;9.910;2023-06-10T05:30:02;15.20;99.90
19878;DHT22;10101;52.204;9.910;2023-06-10T05:32:30;15.20;99.90
19878;DHT22;10101;52.204;9.910;2023-06-10T05:34:57;15.30;99.90
19878;DHT22;10101;52.204;9.910;2023-06-10T05:37:26;15.40;99.90
19878;DHT22;10101;52.204;9.910;2023-06-10T05:39:53;15.40;99.90
19878;DHT22;10101;52.204;9.910;2023-06-10T05:42:20;15.40;99.90
19878;DHT22;10101;52.204;9.910;2023-06-10T05:44:47;15.40;99.90
19878;DHT22;10101;52.204;9.910;2023-06-10T05:47:13;15.50;99.90
19878;DHT22;10101;52.204;9.910;2023-06-10T05:49:40;15.50;99.90
19878;DHT22;10101;52.204;9.910;2023-06-10T05:52:07;15.40;99.90
19878;DHT22;10101;52.204;9.910;2023-06-10T05:54:35;15.50;99.90
19878;DHT22;10101;52.204;9.910;2023-06-10T05:57:02;15.20;99.90
19878;DHT22;10101;52.204;9.910;2023-06-10T05:59:31;15.40;99.90
19878;DHT22;10101;52.204;9.910;2023-06-10T06:01:58;15.40;99.90
19878;DHT22;10101;52.204;9.910;2023-06-10T06:04:25;15.40;99.90
19878;DHT22;10101;52.204;9.910;2023-06-10T06:06:52;15.40;99.90
19878;DHT22;10101;52.204;9.910;2023-06-10T06:09:19;15.50;99.90
19878;DHT22;10101;52.204;9.910;2023-06-10T06:11:47;15.70;99.90
19878;DHT22;10101;52.204;9.910;2023-06-10T06:14:14;15.80;99.90
19878;DHT22;10101;52.204;9.910;2023-06-10T06:16:40;15.80;99.90
19878;DHT22;10101;52.204;9.910;2023-06-10T06:19:07;15.90;99.90
19878;DHT22;10101;52.204;9.910;2023-06-10T06:21:35;15.90;99.90
19878;DHT22;10101;52.204;9.910;2023-06-10T06:24:01;16.20;99.90
19878;DHT22;10101;52.204;9.910;2023-06-10T06:26:28;16.00;99.90
19878;DHT22;10101;52.204;9.910;2023-06-10T06:28:56;16.00;99.90
19878;DHT22;10101;52.204;9.910;2023-06-10T06:31:23;16.00;99.90
19878;DHT22;10101;52.204;9.910;2023-06-10T06:33:50;16.20;1.00
19878;DHT22;10101;52.204;9.910;2023-06-10T06:36:16;16.50;99.90
19878;DHT22;10101;52.204;9.910;2023-06-10T06:38:43;16.60;1.00
19878;DHT22;10101;52.204;9.910;2023-06-10T06:41:10;16.50;1.00
19878;DHT22;10101;52.204;9.910;2023-06-10T06:43:37;16.50;1.00
19878;DHT22;10101;52.204;9.910;2023-06-10T06:46:05;16.60;1.00
19878;DHT22;10101;52.204;9.910;2023-06-10T06:48:32;16.60;1.00
19878;DHT22;10101;52.204;9.910;2023-06-10T06:50:59;16.70;99.90
19878;DHT22;10101;52.204;9.910;2023-06-10T06:53:25;16.80;1.00
19878;DHT22;10101;52.204;9.910;2023-06-10T06:55:52;16.90;99.90
19878;DHT22;10101;52.204;9.910;2023-06-10T06:58:19;17.10;58.60
19878;DHT22;10101;52.204;9.910;2023-06-10T07:00:46;17.30;1.00
19878;DHT22;10101;52.204;9.910;2023-06-10T07:03:14;17.30;99.90
19878;DHT22;10101;52.204;9.910;2023-06-10T07:05:41;17.50;3.70
19878;DHT22;10101;52.204;9.910;2023-06-10T07:08:08;18.20;1.00
19878;DHT22;10101;52.204;9.910;2023-06-10T07:10:35;18.40;1.00
19878;DHT22;10101;52.204;9.910;2023-06-10T07:13:02;18.40;99.90
19878;DHT22;10101;52.204;9.910;2023-06-10T07:15:29;17.80;1.90
19878;DHT22;10101;52.204;9.910;2023-06-10T07:17:56;18.90;1.00
19878;DHT22;10101;52.204;9.910;2023-06-10T07:20:24;18.60;52.50
19878;DHT22;10101;52.204;9.910;2023-06-10T07:22:51;19.40;1.00
19878;DHT22;10101;52.204;9.910;2023-06-10T07:25:17;17.90;99.90
19878;DHT22;10101;52.204;9.910;2023-06-10T07:27:44;19.00;1.00
19878;DHT22;10101;52.204;9.910;2023-06-10T07:30:12;19.70;1.00
19878;DHT22;10101;52.204;9.910;2023-06-10T07:32:39;19.60;99.90
19878;DHT22;10101;52.204;9.910;2023-06-10T07:35:09;18.40;99.90
19878;DHT22;10101;52.204;9.910;2023-06-10T07:37:38;18.20;1.00
19878;DHT22;10101;52.204;9.910;2023-06-10T07:40:06;18.50;1.00
19878;DHT22;10101;52.204;9.910;2023-06-10T07:42:34;17.80;1.00
19878;DHT22;10101;52.204;9.910;2023-06-10T07:45:01;18.30;1.00
19878;DHT22;10101;52.204;9.910;2023-06-10T07:47:28;18.50;99.90
19878;DHT22;10101;52.204;9.910;2023-06-10T07:49:55;18.40;1.00
19878;DHT22;10101;52.204;9.910;2023-06-10T07:52:22;18.20;1.00
19878;DHT22;10101;52.204;9.910;2023-06-10T07:54:51;19.30;99.90
19878;DHT22;10101;52.204;9.910;2023-06-10T07:57:18;19.10;1.00
19878;DHT22;10101;52.204;9.910;2023-06-10T07:59:45;19.00;1.00
19878;DHT22;10101;52.204;9.910;2023-06-10T08:02:12;20.80;1.00
19878;DHT22;10101;52.204;9.910;2023-06-10T08:04:38;20.20;1.00
19878;DHT22;10101;52.204;9.910;2023-06-10T08:07:05;20.30;99.90
19878;DHT22;10101;52.204;9.910;2023-06-10T08:09:32;19.60;1.00
19878;DHT22;10101;52.204;9.910;2023-06-10T08:12:00;20.70;69.60
19878;DHT22;10101;52.204;9.910;2023-06-10T08:14:27;19.80;99.90
19878;DHT22;10101;52.204;9.910;2023-06-10T08:16:53;19.70;1.00
19878;DHT22;10101;52.204;9.910;2023-06-10T08:19:20;21.50;1.00
19878;DHT22;10101;52.204;9.910;2023-06-10T08:21:47;22.30;1.00
19878;DHT22;10101;52.204;9.910;2023-06-10T08:24:14;22.30;86.20
19878;DHT22;10101;52.204;9.910;2023-06-10T08:26:43;21.10;99.90
19878;DHT22;10101;52.204;9.910;2023-06-10T08:29:12;21.50;99.90
19878;DHT22;10101;52.204;9.910;2023-06-10T08:31:41;21.90;99.90
19878;DHT22;10101;52.204;9.910;2023-06-10T08:34:08;22.70;99.90
19878;DHT22;10101;52.204;9.910;2023-06-10T08:36:34;22.80;1.00
19878;DHT22;10101;52.204;9.910;2023-06-10T08:39:02;22.10;99.90
19878;DHT22;10101;52.204;9.910;2023-06-10T08:41:32;22.20;99.90
19878;DHT22;10101;52.204;9.910;2023-06-10T08:44:07;20.80;99.90
19878;DHT22;10101;52.204;9.910;2023-06-10T08:46:36;21.90;1.00
19878;DHT22;10101;52.204;9.910;2023-06-10T08:49:05;22.60;99.90
19878;DHT22;10101;52.204;9.910;2023-06-10T08:51:35;21.90;1.00
19878;DHT22;10101;52.204;9.910;2023-06-10T08:54:04;22.10;1.00
19878;DHT22;10101;52.204;9.910;2023-06-10T08:56:38;23.10;99.90
19878;DHT22;10101;52.204;9.910;2023-06-10T08:59:05;23.10;93.30
19878;DHT22;10101;52.204;9.910;2023-06-10T09:01:32;22.60;99.90
19878;DHT22;10101;52.204;9.910;2023-06-10T09:04:01;23.40;1.00
19878;DHT22;10101;52.204;9.910;2023-06-10T09:06:28;22.70;99.90
19878;DHT22;10101;52.204;9.910;2023-06-10T09:08:55;21.40;1.00
19878;DHT22;10101;52.204;9.910;2023-06-10T09:11:22;21.40;99.90
19878;DHT22;10101;52.204;9.910;2023-06-10T09:13:49;22.40;1.00
19878;DHT22;10101;52.204;9.910;2023-06-10T09:16:16;22.80;99.90
19878;DHT22;10101;52.204;9.910;2023-06-10T09:18:43;23.20;1.00
19878;DHT22;10101;52.204;9.910;2023-06-10T09:21:11;23.40;1.00
19878;DHT22;10101;52.204;9.910;2023-06-10T09:23:38;24.30;1.00
19878;DHT22;10101;52.204;9.910;2023-06-10T09:26:08;24.60;1.00
19878;DHT22;10101;52.204;9.910;2023-06-10T09:28:35;23.40;99.90
19878;DHT22;10101;52.204;9.910;2023-06-10T09:31:03;23.60;1.00
19878;DHT22;10101;52.204;9.910;2023-06-10T09:33:30;23.10;99.90
19878;DHT22;10101;52.204;9.910;2023-06-10T09:35:57;22.90;1.00
19878;DHT22;10101;52.204;9.910;2023-06-10T09:38:31;23.90;1.00
19878;DHT22;10101;52.204;9.910;2023-06-10T09:40:58;24.10;99.90
19878;DHT22;10101;52.204;9.910;2023-06-10T09:43:38;24.10;1.00
19878;DHT22;10101;52.204;9.910;2023-06-10T09:46:05;24.20;1.00
19878;DHT22;10101;52.204;9.910;2023-06-10T09:48:34;24.50;99.90
19878;DHT22;10101;52.204;9.910;2023-06-10T09:51:02;24.60;1.00
19878;DHT22;10101;52.204;9.910;2023-06-10T09:53:33;24.40;1.00
19878;DHT22;10101;52.204;9.910;2023-06-10T09:56:00;25.10;99.90
19878;DHT22;10101;52.204;9.910;2023-06-10T09:58:36;24.40;1.00
19878;DHT22;10101;52.204;9.910;2023-06-10T10:01:10;24.90;13.80
19878;DHT22;10101;52.204;9.910;2023-06-10T10:03:44;25.00;1.00
19878;DHT22;10101;52.204;9.910;2023-06-10T10:06:12;25.20;1.00
19878;DHT22;10101;52.204;9.910;2023-06-10T10:08:41;25.20;99.90
19878;DHT22;10101;52.204;9.910;2023-06-10T10:11:08;25.20;1.00
19878;DHT22;10101;52.204;9.910;2023-06-10T10:13:36;25.00;1.00
19878;DHT22;10101;52.204;9.910;2023-06-10T10:16:06;24.80;1.00
19878;DHT22;10101;52.204;9.910;2023-06-10T10:18:35;24.80;1.00
19878;DHT22;10101;52.204;9.910;2023-06-10T10:21:13;24.40;1.00
19878;DHT22;10101;52.204;9.910;2023-06-10T10:23:47;24.40;99.90
19878;DHT22;10101;52.204;9.910;2023-06-10T10:26:17;24.90;1.00
19878;DHT22;10101;52.204;9.910;2023-06-10T10:28:47;25.00;99.90
19878;DHT22;10101;52.204;9.910;2023-06-10T10:31:18;25.20;1.00
19878;DHT22;10101;52.204;9.910;2023-06-10T10:33:51;25.10;1.00
19878;DHT22;10101;52.204;9.910;2023-06-10T10:36:21;25.40;1.00
19878;DHT22;10101;52.204;9.910;2023-06-10T10:38:50;24.80;1.00
19878;DHT22;10101;52.204;9.910;2023-06-10T10:41:18;25.40;1.00
19878;DHT22;10101;52.204;9.910;2023-06-10T10:43:46;25.00;99.90
19878;DHT22;10101;52.204;9.910;2023-06-10T10:46:16;25.10;1.00
19878;DHT22;10101;52.204;9.910;2023-06-10T10:48:43;26.10;98.60
19878;DHT22;10101;52.204;9.910;2023-06-10T10:51:10;25.50;1.00
19878;DHT22;10101;52.204;9.910;2023-06-10T10:53:37;26.60;94.70
19878;DHT22;10101;52.204;9.910;2023-06-10T10:56:09;26.40;99.90
19878;DHT22;10101;52.204;9.910;2023-06-10T10:58:39;26.80;1.00
19878;DHT22;10101;52.204;9.910;2023-06-10T11:01:12;27.10;1.00
19878;DHT22;10101;52.204;9.910;2023-06-10T11:03:43;26.80;99.90
19878;DHT22;10101;52.204;9.910;2023-06-10T11:06:13;26.90;99.90
19878;DHT22;10101;52.204;9.910;2023-06-10T11:08:47;27.30;1.00
19878;DHT22;10101;52.204;9.910;2023-06-10T11:11:21;26.80;99.90
19878;DHT22;10101;52.204;9.910;2023-06-10T11:14:07;26.80;1.00
19878;DHT22;10101;52.204;9.910;2023-06-10T11:16:39;26.20;1.00
19878;DHT22;10101;52.204;9.910;2023-06-10T11:19:06;26.20;1.00
19878;DHT22;10101;52.204;9.910;2023-06-10T11:21:57;27.10;99.90
19878;DHT22;10101;52.204;9.910;2023-06-10T11:24:24;27.20;99.90
19878;DHT22;10101;52.204;9.910;2023-06-10T11:26:53;26.70;99.90
19878;DHT22;10101;52.204;9.910;2023-06-10T11:29:20;27.10;99.90
19878;DHT22;10101;52.204;9.910;2023-06-10T11:31:51;26.70;96.70
19878;DHT22;10101;52.204;9.910;2023-06-10T11:34:22;26.90;4.30
19878;DHT22;10101;52.204;9.910;2023-06-10T11:36:51;27.40;99.90
19878;DHT22;10101;52.204;9.910;2023-06-10T11:39:20;28.00;99.90
19878;DHT22;10101;52.204;9.910;2023-06-10T11:41:49;28.40;1.00
19878;DHT22;10101;52.204;9.910;2023-06-10T11:44:18;28.10;1.00
19878;DHT22;10101;52.204;9.910;2023-06-10T11:46:48;27.70;1.00
19878;DHT22;10101;52.204;9.910;2023-06-10T11:49:15;27.70;99.90
19878;DHT22;10101;52.204;9.910;2023-06-10T11:51:42;27.80;99.90
19878;DHT22;10101;52.204;9.910;2023-06-10T11:54:15;28.60;1.00
19878;DHT22;10101;52.204;9.910;2023-06-10T11:56:43;28.20;1.00
19878;DHT22;10101;52.204;9.910;2023-06-10T11:59:09;28.10;1.00
19878;DHT22;10101;52.204;9.910;2023-06-10T12:01:41;28.10;99.90
19878;DHT22;10101;52.204;9.910;2023-06-10T12:04:10;28.20;1.00
19878;DHT22;10101;52.204;9.910;2023-06-10T12:06:39;27.80;99.90
19878;DHT22;10101;52.204;9.910;2023-06-10T12:09:06;28.30;99.90
19878;DHT22;10101;52.204;9.910;2023-06-10T12:11:33;28.30;1.00
19878;DHT22;10101;52.204;9.910;2023-06-10T12:14:01;28.20;99.90
19878;DHT22;10101;52.204;9.910;2023-06-10T12:16:29;28.70;99.90
19878;DHT22;10101;52.204;9.910;2023-06-10T12:19:03;28.80;1.00
19878;DHT22;10101;52.204;9.910;2023-06-10T12:21:32;28.60;99.90
19878;DHT22;10101;52.204;9.910;2023-06-10T12:24:04;29.00;1.00
19878;DHT22;10101;52.204;9.910;2023-06-10T12:26:40;29.00;1.00
19878;DHT22;10101;52.204;9.910;2023-06-10T12:29:20;29.20;1.00
19878;DHT22;10101;52.204;9.910;2023-06-10T12:32:00;29.40;1.00
19878;DHT22;10101;52.204;9.910;2023-06-10T12:34:31;29.30;1.00
19878;DHT22;10101;52.204;9.910;2023-06-10T12:36:58;28.80;99.90
19878;DHT22;10101;52.204;9.910;2023-06-10T12:39:25;29.00;99.90
19878;DHT22;10101;52.204;9.910;2023-06-10T12:41:53;29.40;1.00
19878;DHT22;10101;52.204;9.910;2023-06-10T12:44:32;29.70;1.00
19878;DHT22;10101;52.204;9.910;2023-06-10T12:46:59;29.50;99.90
19878;DHT22;10101;52.204;9.910;2023-06-10T12:49:25;29.80;1.00
19878;DHT22;10101;52.204;9.910;2023-06-10T12:51:54;29.60;1.00
19878;DHT22;10101;52.204;9.910;2023-06-10T12:54:21;29.90;1.00
19878;DHT22;10101;52.204;9.910;2023-06-10T12:56:48;29.60;1.00
19878;DHT22;10101;52.204;9.910;2023-06-10T12:59:15;30.00;1.00
19878;DHT22;10101;52.204;9.910;2023-06-10T13:01:42;30.50;1.00
19878;DHT22;10101;52.204;9.910;2023-06-10T13:04:09;30.80;1.00
19878;DHT22;10101;52.204;9.910;2023-06-10T13:06:36;31.20;1.00
19878;DHT22;10101;52.204;9.910;2023-06-10T13:09:05;30.40;1.00
19878;DHT22;10101;52.204;9.910;2023-06-10T13:11:33;30.40;1.00
19878;DHT22;10101;52.204;9.910;2023-06-10T13:14:00;30.20;1.00
19878;DHT22;10101;52.204;9.910;2023-06-10T13:16:28;30.50;1.00
19878;DHT22;10101;52.204;9.910;2023-06-10T13:18:55;31.50;1.00
19878;DHT22;10101;52.204;9.910;2023-06-10T13:21:22;31.30;1.00
19878;DHT22;10101;52.204;9.910;2023-06-10T13:23:48;30.80;1.00
19878;DHT22;10101;52.204;9.910;2023-06-10T13:26:17;31.70;1.00
19878;DHT22;10101;52.204;9.910;2023-06-10T13:28:44;32.30;1.00
19878;DHT22;10101;52.204;9.910;2023-06-10T13:31:11;31.80;1.00
19878;DHT22;10101;52.204;9.910;2023-06-10T13:33:38;31.70;1.00
19878;DHT22;10101;52.204;9.910;2023-06-10T13:36:05;32.20;1.00
19878;DHT22;10101;52.204;9.910;2023-06-10T13:38:32;32.60;1.00
19878;DHT22;10101;52.204;9.910;2023-06-10T13:40:59;32.10;1.00
19878;DHT22;10101;52.204;9.910;2023-06-10T13:43:27;31.60;1.00
19878;DHT22;10101;52.204;9.910;2023-06-10T13:45:54;32.80;1.00
19878;DHT22;10101;52.204;9.910;2023-06-10T13:48:21;33.50;1.00
19878;DHT22;10101;52.204;9.910;2023-06-10T13:50:48;32.60;1.00
19878;DHT22;10101;52.204;9.910;2023-06-10T13:53:15;31.90;1.00
19878;DHT22;10101;52.204;9.910;2023-06-10T13:55:41;32.60;1.00
19878;DHT22;10101;52.204;9.910;2023-06-10T13:58:08;32.80;1.00
19878;DHT22;10101;52.204;9.910;2023-06-10T14:00:36;33.30;1.00
19878;DHT22;10101;52.204;9.910;2023-06-10T14:03:03;33.30;1.00
19878;DHT22;10101;52.204;9.910;2023-06-10T14:05:30;33.40;1.00
19878;DHT22;10101;52.204;9.910;2023-06-10T14:07:57;34.00;1.00
19878;DHT22;10101;52.204;9.910;2023-06-10T14:10:23;33.80;1.00
19878;DHT22;10101;52.204;9.910;2023-06-10T14:12:50;33.80;1.00
19878;DHT22;10101;52.204;9.910;2023-06-10T14:15:17;33.50;1.00
19878;DHT22;10101;52.204;9.910;2023-06-10T14:17:46;34.20;1.00
19878;DHT22;10101;52.204;9.910;2023-06-10T14:20:12;33.90;1.00
19878;DHT22;10101;52.204;9.910;2023-06-10T14:22:39;34.60;1.00
19878;DHT22;10101;52.204;9.910;2023-06-10T14:25:07;34.40;1.00
19878;DHT22;10101;52.204;9.910;2023-06-10T14:27:34;34.10;1.00
19878;DHT22;10101;52.204;9.910;2023-06-10T14:30:01;34.10;1.00
19878;DHT22;10101;52.204;9.910;2023-06-10T14:32:28;34.30;1.00
19878;DHT22;10101;52.204;9.910;2023-06-10T14:34:56;33.30;1.00
19878;DHT22;10101;52.204;9.910;2023-06-10T14:37:23;33.90;1.00
19878;DHT22;10101;52.204;9.910;2023-06-10T14:39:49;34.80;1.00
19878;DHT22;10101;52.204;9.910;2023-06-10T14:42:16;34.70;1.00
19878;DHT22;10101;52.204;9.910;2023-06-10T14:44:43;33.90;1.00
19878;DHT22;10101;52.204;9.910;2023-06-10T14:47:10;34.90;1.00
19878;DHT22;10101;52.204;9.910;2023-06-10T14:49:38;34.60;1.00
19878;DHT22;10101;52.204;9.910;2023-06-10T14:52:09;33.80;1.00
19878;DHT22;10101;52.204;9.910;2023-06-10T14:54:35;34.30;1.00
19878;DHT22;10101;52.204;9.910;2023-06-10T14:57:03;34.00;1.00
19878;DHT22;10101;52.204;9.910;2023-06-10T14:59:31;34.40;1.00
19878;DHT22;10101;52.204;9.910;2023-06-10T15:01:58;34.50;1.00
19878;DHT22;10101;52.204;9.910;2023-06-10T15:04:26;34.40;1.00
19878;DHT22;10101;52.204;9.910;2023-06-10T15:06:53;34.00;1.00
19878;DHT22;10101;52.204;9.910;2023-06-10T15:09:21;34.70;1.00
19878;DHT22;10101;52.204;9.910;2023-06-10T15:11:48;33.80;1.00
19878;DHT22;10101;52.204;9.910;2023-06-10T15:14:14;33.70;1.00
19878;DHT22;10101;52.204;9.910;2023-06-10T15:16:41;33.60;1.00
19878;DHT22;10101;52.204;9.910;2023-06-10T15:19:08;34.50;1.00
19878;DHT22;10101;52.204;9.910;2023-06-10T15:21:35;33.90;1.00
19878;DHT22;10101;52.204;9.910;2023-06-10T15:24:02;34.70;1.00
19878;DHT22;10101;52.204;9.910;2023-06-10T15:26:30;33.70;1.00
19878;DHT22;10101;52.204;9.910;2023-06-10T15:28:56;33.30;1.00
19878;DHT22;10101;52.204;9.910;2023-06-10T15:31:23;33.10;1.00
19878;DHT22;10101;52.204;9.910;2023-06-10T15:33:50;33.70;1.00
19878;DHT22;10101;52.204;9.910;2023-06-10T15:36:16;33.40;1.00
19878;DHT22;10101;52.204;9.910;2023-06-10T15:38:43;33.00;1.00
19878;DHT22;10101;52.204;9.910;2023-06-10T15:41:11;33.00;1.00